Terminal Aerodrome Forecast
Issued by NWS

Home | Current Version | Previous Version | Text Only | Print | Product List | Glossary On
Versions: 1 2 3 4 5 6 7 8 9 10 11 12 13
000
FTUS46 KMFR 121100
TAFRBG
TAF
KRBG 121122Z 1212/1312 00000KT P6SM FEW015
     FM121800 VRB03KT P6SM SKC
     FM122200 36008KT P6SM SKC
     FM130400 VRB03KT P6SM SKC=

USA.gov is the U.S. government's official web portal to all federal, state and local government web resources and services.